Terminal Aerodrome Forecast
Issued by NWS

Home | Current Version | Previous Version | Graphics & Text | Print | Product List | Glossary On
Versions: 1 2 3 4 5 6 7 8 9 10 11 12 13 14 15 16 17 18 19 20 21 22 23 24 25 26 27
000
FTUS43 KLOT 161502 AAA
TAFGYY
TAF AMD
KGYY 161502Z 1615/1712 11005KT P6SM SCT050 BKN250
     FM161900 13007KT P6SM BKN050 BKN250
     FM162300 13010KT P6SM VCTS BKN040CB
     FM170400 17008KT P6SM SCT030 OVC100 PROB30 1708/1712 2SM TSRA
      BKN030CB=

USA.gov is the U.S. government's official web portal to all federal, state and local government web resources and services.